Time;durP1;ratioP1;P1;durP2;ratioP2;P2;SDS_P1;SDS_P2;PMS_P1;PMS_P2;Temp;Humidity;BMP_temperature;BMP_pressure;BME280_temperature;BME280_humidity;BME280_pressure;Samples;Min_cycle;Max_cycle;Signal;HPM_P1;HPM_P2
2022/01/17 00:00:49;;;;;;;2.63;1.95;;;;;;;19.67;46.32;97464.38;13044140;22;20016;-55
2022/01/17 00:06:09;;;;;;;2.83;1.95;;;;;;;19.67;46.61;97477.09;13043756;22;20030;-55
2022/01/17 00:11:28;;;;;;;2.65;1.90;;;;;;;19.65;46.46;97468.50;13044210;22;20021;-55
2022/01/17 00:17:02;;;;;;;2.50;1.85;;;;;;;19.63;46.41;97462.63;13043505;22;20011;-54
2022/01/17 00:22:23;;;;;;;3.90;2.30;;;;;;;19.61;46.38;97471.03;13044307;22;20490;-55
2022/01/17 00:27:42;;;;;;;2.83;1.90;;;;;;;19.60;46.30;97461.34;13041991;22;20019;-55
2022/01/17 00:33:01;;;;;;;2.42;1.85;;;;;;;19.59;46.22;97459.72;13044069;22;20019;-55
2022/01/17 00:38:21;;;;;;;2.65;2.10;;;;;;;19.56;46.17;97444.94;13047613;22;20066;-55
2022/01/17 00:43:40;;;;;;;3.20;2.00;;;;;;;19.54;46.04;97452.53;13048698;22;20016;-55
2022/01/17 00:49:00;;;;;;;1.95;1.75;;;;;;;19.53;46.17;97445.53;13048420;22;20015;-55
2022/01/17 00:54:19;;;;;;;2.55;1.70;;;;;;;19.52;46.02;97448.53;13068496;22;20011;-56
2022/01/17 00:59:38;;;;;;;2.95;2.15;;;;;;;19.50;45.96;97443.47;13048150;22;20015;-56
2022/01/17 01:04:58;;;;;;;3.03;1.98;;;;;;;19.49;45.97;97449.97;13047288;22;20078;-54
2022/01/17 01:10:17;;;;;;;2.88;2.10;;;;;;;19.49;46.05;97458.06;13047674;22;20011;-54
2022/01/17 01:21:21;;;;;;;1.90;1.70;;;;;;;19.44;45.90;97425.75;13047873;22;20011;-55
2022/01/17 01:32:22;;;;;;;2.27;1.80;;;;;;;19.42;45.73;97419.06;13047632;22;20539;-55
2022/01/17 01:37:44;;;;;;;2.78;1.85;;;;;;;19.39;45.62;97419.69;13047456;22;20015;-56
2022/01/17 01:43:03;;;;;;;2.83;2.00;;;;;;;19.38;45.74;97407.28;13047449;22;20015;-55
2022/01/17 01:48:24;;;;;;;3.28;1.80;;;;;;;19.36;45.67;97418.38;13046799;22;20019;-56
2022/01/17 01:53:43;;;;;;;2.58;1.92;;;;;;;19.33;45.71;97411.72;13066969;22;20023;-56
2022/01/17 01:59:04;;;;;;;2.25;2.00;;;;;;;19.33;45.68;97406.31;13046518;22;20019;-55
2022/01/17 02:04:23;;;;;;;2.42;1.90;;;;;;;19.31;45.45;97383.41;13046073;22;20607;-55
2022/01/17 02:09:43;;;;;;;1.77;1.60;;;;;;;19.29;45.65;97369.41;13046242;22;20017;-55
2022/01/17 02:15:03;;;;;;;1.80;1.70;;;;;;;19.28;45.54;97386.72;13046773;22;20086;-55
2022/01/17 02:20:39;;;;;;;2.58;1.90;;;;;;;19.27;45.37;97379.75;13046810;22;20539;-55
2022/01/17 02:26:01;;;;;;;2.00;1.67;;;;;;;19.24;45.58;97391.94;13046120;22;20016;-56
2022/01/17 02:31:21;;;;;;;2.35;1.80;;;;;;;19.23;45.57;97384.94;13045859;22;20478;-55
2022/01/17 02:36:41;;;;;;;1.83;1.60;;;;;;;19.21;45.59;97365.56;13045815;22;20015;-55
2022/01/17 02:42:01;;;;;;;2.10;1.65;;;;;;;19.20;45.50;97361.25;13066548;22;20015;-55
2022/01/17 02:47:23;;;;;;;3.38;1.67;;;;;;;19.19;45.46;97345.34;13046152;22;20018;-55
2022/01/17 02:52:42;;;;;;;2.67;1.65;;;;;;;19.16;45.54;97336.75;13045208;22;20019;-55
2022/01/17 02:58:01;;;;;;;2.47;2.00;;;;;;;19.15;45.23;97354.06;13045529;22;20054;-55
2022/01/17 03:03:23;;;;;;;1.95;1.50;;;;;;;19.14;45.42;97346.28;13045181;22;20018;-55
2022/01/17 03:08:43;;;;;;;1.88;1.60;;;;;;;19.12;45.38;97332.28;13045607;22;20431;-55
2022/01/17 03:14:03;;;;;;;1.65;1.55;;;;;;;19.10;45.47;97332.59;13045174;22;20027;-56
2022/01/17 03:19:22;;;;;;;1.60;1.50;;;;;;;19.10;45.29;97324.47;13066106;22;20022;-55
2022/01/17 03:24:41;;;;;;;1.88;1.70;;;;;;;19.08;45.58;97337.50;13065805;22;20029;-53
2022/01/17 03:30:01;;;;;;;1.90;1.65;;;;;;;19.06;45.24;97334.31;13045272;22;20011;-56
2022/01/17 03:35:21;;;;;;;2.38;1.80;;;;;;;19.05;45.24;97331.91;13045348;22;20019;-56
2022/01/17 03:40:42;;;;;;;1.70;1.60;;;;;;;19.04;45.23;97343.84;13044286;22;20019;-55
2022/01/17 03:46:02;;;;;;;1.70;1.60;;;;;;;19.03;45.20;97342.22;13045216;22;20019;-55
2022/01/17 03:51:21;;;;;;;1.50;1.40;;;;;;;19.01;45.30;97350.63;13045157;22;20390;-55
2022/01/17 03:56:40;;;;;;;3.28;1.70;;;;;;;19.00;45.26;97332.84;13044187;22;20019;-55
2022/01/17 04:02:00;;;;;;;1.60;1.50;;;;;;;18.99;45.01;97347.44;13042437;22;20016;-55
2022/01/17 04:07:20;;;;;;;1.35;1.25;;;;;;;18.96;45.17;97343.44;13044076;22;20623;-55
2022/01/17 04:12:40;;;;;;;1.58;1.48;;;;;;;18.95;45.30;97327.56;13065187;22;20015;-56
2022/01/17 04:18:00;;;;;;;1.33;1.23;;;;;;;18.93;45.07;97340.56;13044543;22;20027;-55
2022/01/17 04:23:20;;;;;;;1.92;1.42;;;;;;;18.92;45.08;97320.88;13065032;22;20016;-52
2022/01/17 04:28:40;;;;;;;1.30;1.20;;;;;;;18.91;45.02;97329.28;13044620;22;20072;-55
2022/01/17 04:33:59;;;;;;;1.60;1.50;;;;;;;18.89;45.14;97315.28;13043610;22;20069;-56
2022/01/17 04:39:19;;;;;;;1.40;1.30;;;;;;;18.87;45.14;97318.28;13044279;22;20027;-55
2022/01/17 04:50:25;;;;;;;1.48;1.38;;;;;;;18.85;45.11;97280.00;13044164;22;20019;-55
2022/01/17 04:55:45;;;;;;;1.73;1.48;;;;;;;18.84;44.99;97283.03;13019286;22;20023;-53
2022/01/17 05:01:04;;;;;;;1.73;1.48;;;;;;;18.81;44.88;97289.81;13043025;22;20025;-55
2022/01/17 05:06:23;;;;;;;1.77;1.55;;;;;;;18.81;44.96;97280.94;13043757;22;20027;-55
2022/01/17 05:11:43;;;;;;;1.40;1.30;;;;;;;18.78;45.04;97266.13;13064702;22;20015;-55
2022/01/17 05:17:20;;;;;;;1.90;1.55;;;;;;;18.76;45.00;97284.53;13064692;22;20015;-54
2022/01/17 05:22:41;;;;;;;1.65;1.20;;;;;;;18.76;45.13;97246.75;13065672;22;20089;-55
2022/01/17 05:28:01;;;;;;;1.35;1.20;;;;;;;18.75;44.85;97264.03;13047271;22;20019;-55
2022/01/17 05:33:20;;;;;;;1.45;1.35;;;;;;;18.74;45.06;97284.03;13067720;22;20015;-55
2022/01/17 05:38:40;;;;;;;1.40;1.30;;;;;;;18.74;44.97;97257.84;13046384;22;20381;-54
2022/01/17 05:43:59;;;;;;;1.65;1.20;;;;;;;18.74;44.96;97236.25;13045797;22;20023;-55
2022/01/17 05:49:18;;;;;;;2.08;1.10;;;;;;;18.76;45.14;97235.94;13045928;22;20035;-55
2022/01/17 05:54:38;;;;;;;1.85;1.50;;;;;;;18.79;45.36;97202.94;13046604;22;20015;-55
2022/01/17 05:59:59;;;;;;;3.47;1.25;;;;;;;18.81;45.25;97226.94;13047175;22;20345;-54
2022/01/17 06:05:19;;;;;;;1.38;1.20;;;;;;;18.83;45.22;97247.13;13046037;22;20019;-55
2022/01/17 06:10:38;;;;;;;2.25;1.25;;;;;;;18.85;45.06;97250.31;13046573;22;20018;-55
2022/01/17 06:15:58;;;;;;;2.33;1.40;;;;;;;18.88;45.06;97244.31;13045560;22;20037;-54
2022/01/17 06:21:17;;;;;;;1.10;1.10;;;;;;;18.91;45.12;97256.38;13043466;22;20015;-55
2022/01/17 06:26:41;;;;;;;2.47;1.30;;;;;;;18.94;45.13;97239.56;13041721;22;20023;-55
2022/01/17 06:32:00;;;;;;;1.58;1.30;;;;;;;18.98;45.11;97254.06;13042795;22;20068;-55
2022/01/17 06:37:20;;;;;;;1.08;1.02;;;;;;;19.00;45.10;97281.53;13041851;22;20019;-54
2022/01/17 06:42:40;;;;;;;1.35;1.20;;;;;;;19.04;44.90;97258.22;13043316;22;20015;-55
2022/01/17 06:48:00;;;;;;;1.23;1.08;;;;;;;19.06;44.95;97266.00;13045170;22;20335;-54
2022/01/17 06:53:20;;;;;;;1.17;1.08;;;;;;;19.09;45.15;97244.59;13045409;22;20068;-54
2022/01/17 06:58:42;;;;;;;1.30;1.20;;;;;;;19.13;44.95;97255.53;13045019;22;20011;-55
2022/01/17 07:04:02;;;;;;;1.35;1.00;;;;;;;19.17;44.83;97229.53;13045212;22;20726;-54
2022/01/17 07:09:21;;;;;;;1.17;1.05;;;;;;;19.19;44.81;97258.91;13045704;22;20022;-55
2022/01/17 07:14:42;;;;;;;1.10;1.00;;;;;;;19.24;44.88;97266.88;13066513;22;20015;-54
2022/01/17 07:20:02;;;;;;;4.93;1.00;;;;;;;19.28;44.84;97289.47;13044469;22;20011;-54
2022/01/17 07:25:21;;;;;;;1.52;1.20;;;;;;;19.32;44.63;97312.06;13045137;22;20015;-55
2022/01/17 07:30:41;;;;;;;1.20;1.10;;;;;;;19.36;44.55;97329.25;13065823;22;20072;-55
2022/01/17 07:36:00;;;;;;;1.63;1.10;;;;;;;19.40;44.45;97330.22;13044928;22;20015;-55
2022/01/17 07:41:20;;;;;;;1.30;1.20;;;;;;;19.44;44.35;97287.16;13044802;22;20011;-55
2022/01/17 07:46:53;;;;;;;0.90;0.90;;;;;;;19.48;44.40;97299.75;13043309;22;20025;-54
2022/01/17 07:52:13;;;;;;;1.10;1.00;;;;;;;19.52;44.01;97289.09;13042940;22;20019;-52
2022/01/17 07:57:33;;;;;;;1.27;1.17;;;;;;;19.58;43.87;97284.34;13043835;22;20041;-55
2022/01/17 08:02:53;;;;;;;1.55;1.10;;;;;;;19.62;43.99;97283.44;13038614;22;20101;-54
2022/01/17 08:08:13;;;;;;;1.90;1.10;;;;;;;19.67;43.92;97290.59;13041826;22;20050;-52
2022/01/17 08:13:33;;;;;;;0.95;0.93;;;;;;;19.71;43.88;97253.72;13064911;22;20029;-52
2022/01/17 08:18:53;;;;;;;1.40;1.10;;;;;;;19.76;43.94;97264.44;13043534;22;20011;-54
2022/01/17 08:24:13;;;;;;;2.00;1.10;;;;;;;19.81;43.70;97256.16;13043379;22;20022;-53
2022/01/17 08:29:34;;;;;;;1.05;0.90;;;;;;;19.86;43.79;97211.97;13043785;22;20516;-55
2022/01/17 08:34:54;;;;;;;3.40;1.20;;;;;;;19.89;43.42;97206.69;13064854;22;20442;-54
2022/01/17 08:40:14;;;;;;;1.10;1.00;;;;;;;19.95;43.39;97186.53;13040136;22;20435;-54
2022/01/17 08:45:33;;;;;;;1.30;1.10;;;;;;;20.01;43.45;97191.75;13042803;22;20015;-54
2022/01/17 08:50:53;;;;;;;0.80;0.80;;;;;;;20.05;43.44;97196.25;13043454;22;20602;-55
2022/01/17 08:56:13;;;;;;;1.58;0.90;;;;;;;20.08;43.19;97183.97;13043519;22;20455;-54
2022/01/17 09:01:33;;;;;;;1.23;1.00;;;;;;;20.12;43.13;97182.22;13067849;22;20018;-51
2022/01/17 09:06:52;;;;;;;1.55;0.90;;;;;;;20.18;43.00;97183.66;13067190;22;20015;-53
2022/01/17 09:12:13;;;;;;;0.82;0.80;;;;;;;20.23;43.13;97150.22;13046361;22;20498;-52
2022/01/17 09:17:32;;;;;;;1.00;0.90;;;;;;;20.25;42.95;97165.03;13047177;22;20019;-55
2022/01/17 09:22:52;;;;;;;2.00;1.00;;;;;;;20.29;42.90;97170.63;13068386;22;20015;-54
2022/01/17 09:28:12;;;;;;;1.88;1.00;;;;;;;20.33;42.99;97156.13;13047226;22;20455;-53
2022/01/17 09:33:34;;;;;;;1.13;1.00;;;;;;;20.37;42.76;97155.50;13047077;22;20019;-53
2022/01/17 09:38:54;;;;;;;3.33;0.82;;;;;;;20.40;42.73;97139.38;13046995;22;20369;-55
2022/01/17 09:44:13;;;;;;;2.38;0.90;;;;;;;20.41;42.87;97141.00;13047216;22;20015;-54
2022/01/17 09:49:43;;;;;;;0.80;0.80;;;;;;;20.44;42.86;97139.53;13046313;22;20034;-53
2022/01/17 09:55:08;;;;;;;;;;;;;;;20.45;42.78;97141.94;13064414;22;20019;-55
2022/01/17 10:00:29;;;;;;;2.17;0.95;;;;;;;20.46;43.00;97138.09;13064756;22;19919;-55
2022/01/17 10:05:49;;;;;;;1.15;0.80;;;;;;;20.49;43.24;97142.88;13064861;22;20021;-53
2022/01/17 10:11:15;;;;;;;1.00;0.85;;;;;;;20.50;43.59;97168.03;13065827;22;20329;-54
2022/01/17 10:16:41;;;;;;;1.73;0.85;;;;;;;20.50;43.80;97151.78;13065897;22;20019;-54
2022/01/17 10:22:07;;;;;;;4.40;1.00;;;;;;;20.50;43.83;97114.72;13065149;22;20015;-54
2022/01/17 10:38:27;;;;;;;1.15;0.80;;;;;;;20.50;43.60;97125.53;13066244;22;20019;-54
2022/01/17 10:43:47;;;;;;;3.22;0.77;;;;;;;20.50;43.54;97116.59;13066270;22;20035;-51
2022/01/17 10:49:06;;;;;;;1.27;0.80;;;;;;;20.50;43.52;97112.00;13041234;22;20015;-54
2022/01/17 10:54:26;;;;;;;1.25;0.93;;;;;;;20.51;43.60;97108.16;13044008;22;20446;-54
2022/01/17 10:59:51;;;;;;;2.63;1.10;;;;;;;20.51;43.57;97113.59;13044693;22;20100;-54
2022/01/17 11:05:12;;;;;;;1.20;0.80;;;;;;;20.52;43.72;97119.78;13044081;22;20031;-51
2022/01/17 11:10:36;;;;;;;2.50;0.70;;;;;;;20.51;43.93;97113.59;13064619;22;20019;-55
2022/01/17 11:15:58;;;;;;;1.63;0.90;;;;;;;20.51;43.59;97120.91;13044059;22;20346;-55
2022/01/17 11:21:18;;;;;;;1.02;0.80;;;;;;;20.51;43.68;97124.41;13021393;22;20016;-53
2022/01/17 11:26:37;;;;;;;1.50;0.80;;;;;;;20.51;43.65;97123.63;13043106;22;20015;-55
2022/01/17 11:31:56;;;;;;;3.03;0.80;;;;;;;20.51;43.56;97127.13;13043431;22;20038;-51
2022/01/17 11:37:18;;;;;;;1.05;0.80;;;;;;;20.50;43.65;97122.00;13044742;22;20030;-53
2022/01/17 11:42:50;;;;;;;1.30;0.90;;;;;;;20.50;43.60;97090.34;13021242;22;20015;-54
2022/01/17 11:48:17;;;;;;;2.20;0.90;;;;;;;20.50;43.53;97068.69;13044894;22;20022;-52
2022/01/17 11:53:39;;;;;;;1.42;0.80;;;;;;;20.52;43.64;97065.66;13042218;22;20022;-54
2022/01/17 11:58:59;;;;;;;1.17;0.77;;;;;;;20.50;43.10;97079.53;13043153;22;20011;-54
2022/01/17 12:04:19;;;;;;;1.70;0.82;;;;;;;20.48;42.65;97108.84;13064047;22;20011;-54
2022/01/17 12:09:44;;;;;;;1.40;0.90;;;;;;;20.46;42.47;97097.50;13063827;22;20102;-54
2022/01/17 12:15:08;;;;;;;1.38;0.90;;;;;;;20.45;42.36;97082.41;13064286;22;20015;-54
2022/01/17 12:20:44;;;;;;;1.10;0.90;;;;;;;20.43;42.23;97067.63;13021574;22;20023;-53
2022/01/17 12:26:23;;;;;;;2.42;0.85;;;;;;;20.42;42.20;97063.31;13037679;22;20043;-54
2022/01/17 12:31:47;;;;;;;2.70;1.10;;;;;;;20.40;42.04;97063.63;13044977;22;20086;-54
2022/01/17 12:37:28;;;;;;;2.47;0.70;;;;;;;20.39;41.62;97061.25;13048118;22;20019;-55
2022/01/17 12:42:49;;;;;;;2.15;1.00;;;;;;;20.38;41.86;97060.44;13046823;22;20019;-54
2022/01/17 12:48:15;;;;;;;1.75;1.15;;;;;;;20.37;41.80;97068.91;13044426;22;20339;-54
2022/01/17 12:53:35;;;;;;;1.88;0.90;;;;;;;20.35;41.86;97042.16;13045893;22;20570;-52
2022/01/17 12:59:00;;;;;;;2.63;1.13;;;;;;;20.32;41.52;97050.91;13047211;22;20498;-55
2022/01/17 13:04:20;;;;;;;2.80;1.13;;;;;;;20.30;41.28;97081.00;13046340;22;20042;-55
2022/01/17 13:09:40;;;;;;;1.52;1.00;;;;;;;20.29;41.23;97063.19;13067119;22;20026;-55
2022/01/17 13:15:00;;;;;;;1.65;1.10;;;;;;;20.28;41.12;97074.31;13046498;22;20015;-54
2022/01/17 13:20:23;;;;;;;2.22;1.15;;;;;;;20.26;40.89;97080.06;13045902;22;20011;-53
2022/01/17 13:25:42;;;;;;;1.35;1.08;;;;;;;20.26;40.65;97076.56;13046489;22;20496;-55
2022/01/17 13:31:14;;;;;;;1.95;1.30;;;;;;;20.25;40.75;97077.69;13067378;22;20019;-55
2022/01/17 13:36:36;;;;;;;2.25;1.33;;;;;;;20.22;41.00;97089.94;13046783;22;20095;-55
2022/01/17 13:41:59;;;;;;;1.50;1.08;;;;;;;20.22;41.02;97092.63;13066813;22;20011;-55
2022/01/17 13:47:20;;;;;;;1.35;1.15;;;;;;;20.21;41.13;97065.91;13046573;22;20615;-52
2022/01/17 13:52:40;;;;;;;2.10;1.30;;;;;;;20.19;41.25;97071.66;13045598;22;20015;-55
2022/01/17 13:58:06;;;;;;;1.30;1.20;;;;;;;20.16;41.25;97096.63;13046215;22;20469;-54
2022/01/17 14:03:27;;;;;;;2.28;1.48;;;;;;;20.15;41.22;97089.66;13046432;22;20094;-54
2022/01/17 14:08:49;;;;;;;1.55;1.20;;;;;;;20.13;41.25;97102.66;13067170;22;20069;-54
2022/01/17 14:14:11;;;;;;;1.35;1.15;;;;;;;20.10;41.62;97114.94;13042642;22;20473;-54
2022/01/17 14:19:32;;;;;;;2.25;1.30;;;;;;;20.10;42.17;97112.22;13045963;22;20329;-55
2022/01/17 14:24:53;;;;;;;2.60;1.15;;;;;;;20.08;42.41;97119.06;13066375;22;20381;-55
2022/01/17 14:30:13;;;;;;;1.45;1.15;;;;;;;20.06;42.50;97121.31;13045324;22;20015;-54
2022/01/17 14:35:32;;;;;;;1.30;1.20;;;;;;;20.05;42.65;97128.63;13065917;22;20017;-54
2022/01/17 14:40:51;;;;;;;2.75;1.02;;;;;;;20.04;42.63;97158.69;13042093;22;20054;-54
2022/01/17 14:46:12;;;;;;;1.10;1.00;;;;;;;20.03;43.05;97173.31;13044195;22;20097;-54
2022/01/17 14:51:34;;;;;;;1.23;1.10;;;;;;;20.01;43.16;97172.84;13065009;22;20088;-54
2022/01/17 15:03:26;;;;;;;1.20;1.10;;;;;;;19.98;43.07;97214.06;13066552;22;20021;-55
2022/01/17 15:08:13;;;;;;;1.50;1.10;;;;;;;19.96;43.32;97217.06;13035847;22;20082;-55
2022/01/17 15:13:33;;;;;;;2.92;1.20;;;;;;;19.94;43.44;97246.34;13041616;22;20023;-55
2022/01/17 15:18:52;;;;;;;1.83;1.23;;;;;;;19.94;44.43;97263.34;13042091;22;20461;-55
2022/01/17 15:24:13;;;;;;;2.97;1.40;;;;;;;19.93;44.59;97336.66;13042308;22;20042;-55
2022/01/17 15:29:33;;;;;;;1.38;1.13;;;;;;;19.92;44.90;97384.56;13042359;22;20019;-55
2022/01/17 15:34:52;;;;;;;4.03;1.10;;;;;;;19.92;44.99;97395.38;13041484;22;20080;-55
2022/01/17 15:40:13;;;;;;;1.75;1.10;;;;;;;19.89;45.05;97406.78;13041634;22;20022;-55
2022/01/17 15:45:32;;;;;;;1.55;1.20;;;;;;;19.89;45.45;97420.31;13043666;22;20050;-55
2022/01/17 15:50:52;;;;;;;2.33;1.05;;;;;;;19.87;45.30;97425.22;13041218;22;20413;-58
2022/01/17 15:56:12;;;;;;;1.65;1.20;;;;;;;19.86;45.81;97450.69;13063887;22;20015;-56
2022/01/17 16:01:32;;;;;;;2.50;1.27;;;;;;;19.85;45.94;97451.78;13042321;22;20015;-52
2022/01/17 16:06:52;;;;;;;2.60;1.15;;;;;;;19.85;45.56;97453.69;13041406;22;20680;-52
2022/01/17 16:12:11;;;;;;;2.88;1.30;;;;;;;19.84;45.93;97463.72;13064416;22;20021;-53
2022/01/17 16:17:31;;;;;;;2.08;1.10;;;;;;;19.82;45.85;97460.53;13042846;22;20308;-54
2022/01/17 16:22:51;;;;;;;1.70;1.10;;;;;;;19.82;46.10;97465.16;13042159;22;20026;-54
2022/01/17 16:28:10;;;;;;;2.13;1.00;;;;;;;19.79;46.30;97476.56;13043063;22;20011;-53
2022/01/17 16:33:30;;;;;;;1.40;1.10;;;;;;;19.78;46.39;97485.78;13063330;22;20015;-54
2022/01/17 16:38:50;;;;;;;2.22;1.02;;;;;;;19.76;46.36;97513.16;13063348;22;20042;-55
2022/01/17 16:44:13;;;;;;;0.90;0.90;;;;;;;19.75;46.26;97530.47;13043916;22;20041;-54
2022/01/17 16:49:33;;;;;;;1.25;1.05;;;;;;;19.73;46.17;97549.69;13038100;22;20011;-55
2022/01/17 16:54:53;;;;;;;2.28;1.00;;;;;;;19.70;45.95;97571.91;13063674;22;20025;-55
2022/01/17 17:00:13;;;;;;;2.33;1.00;;;;;;;19.70;46.18;97598.16;13043689;22;20094;-55
2022/01/17 17:05:32;;;;;;;1.80;1.20;;;;;;;19.70;46.19;97612.44;13042155;22;20019;-53
2022/01/17 17:10:52;;;;;;;1.58;1.10;;;;;;;19.69;46.59;97627.06;13043843;22;20469;-55
2022/01/17 17:16:12;;;;;;;2.60;1.05;;;;;;;19.70;45.96;97641.41;13063661;22;20015;-54
2022/01/17 17:21:31;;;;;;;4.00;0.98;;;;;;;19.72;46.43;97645.41;13065858;22;20022;-55
2022/01/17 17:26:51;;;;;;;1.55;1.00;;;;;;;19.72;46.54;97655.44;13046765;22;20015;-56
2022/01/17 17:32:11;;;;;;;2.05;0.90;;;;;;;19.73;46.70;97668.63;13046109;22;20015;-53
2022/01/17 17:37:30;;;;;;;2.08;1.10;;;;;;;19.74;46.53;97659.44;13045801;22;20022;-52
2022/01/17 17:42:50;;;;;;;2.83;1.00;;;;;;;19.77;46.74;97662.63;13067727;22;20068;-53
2022/01/17 17:48:10;;;;;;;2.30;2.10;;;;;;;19.81;47.41;97690.66;13046568;22;20402;-53
2022/01/17 17:53:30;;;;;;;4.57;3.75;;;;;;;19.84;48.89;97701.66;13065308;22;20068;-52
2022/01/17 17:58:50;;;;;;;6.18;4.03;;;;;;;19.88;49.55;97723.50;13045278;22;20016;-51
2022/01/17 18:04:09;;;;;;;4.47;3.70;;;;;;;19.91;49.75;97756.13;13044623;22;20025;-52
2022/01/17 18:09:29;;;;;;;3.30;3.00;;;;;;;19.97;50.08;97772.25;13046406;22;20019;-52
2022/01/17 18:14:49;;;;;;;4.28;3.13;;;;;;;19.99;49.88;97791.69;13067453;22;20011;-53
2022/01/17 18:20:09;;;;;;;3.13;2.80;;;;;;;20.00;49.85;97785.97;13044922;22;20021;-54
2022/01/17 18:25:29;;;;;;;4.32;2.80;;;;;;;20.02;49.62;97789.16;13045322;22;20019;-54
2022/01/17 18:30:49;;;;;;;2.40;2.20;;;;;;;20.03;49.62;97785.38;13045488;22;20025;-53
2022/01/17 18:36:12;;;;;;;2.50;2.13;;;;;;;20.06;49.85;97792.06;13065995;22;20015;-53
2022/01/17 18:41:32;;;;;;;3.03;1.90;;;;;;;20.07;49.59;97823.41;13045736;22;20012;-55
2022/01/17 18:46:52;;;;;;;4.20;1.80;;;;;;;20.07;49.26;97831.53;13065532;22;20738;-53
2022/01/17 18:52:18;;;;;;;2.75;1.98;;;;;;;20.08;49.59;97852.09;13064460;22;20622;-56
2022/01/17 18:57:38;;;;;;;3.60;1.67;;;;;;;20.10;49.47;97868.81;13065983;22;20011;-53
2022/01/17 19:02:57;;;;;;;1.45;1.25;;;;;;;20.10;49.30;97876.94;13044161;22;20019;-54
2022/01/17 19:08:16;;;;;;;1.48;1.23;;;;;;;20.11;49.31;97870.41;13043764;22;20019;-52
2022/01/17 19:13:36;;;;;;;3.25;1.33;;;;;;;20.11;49.27;97865.00;13044674;22;20019;-50
2022/01/17 19:24:34;;;;;;;3.22;1.23;;;;;;;20.11;49.27;97865.81;13064569;22;20691;-53
2022/01/17 19:29:55;;;;;;;3.65;1.30;;;;;;;20.11;49.26;97863.09;13064607;22;20090;-54
2022/01/17 19:35:16;;;;;;;2.65;1.40;;;;;;;20.12;49.26;97869.31;13064323;22;20053;-53
2022/01/17 19:40:41;;;;;;;1.20;1.10;;;;;;;20.11;49.32;97900.97;13043617;22;20020;-55
2022/01/17 19:46:01;;;;;;;2.33;1.00;;;;;;;20.11;48.88;97910.97;13044358;22;20015;-54
2022/01/17 19:51:34;;;;;;;1.42;1.17;;;;;;;20.10;49.01;97929.13;13043003;22;20015;-54
2022/01/17 19:56:53;;;;;;;1.33;1.00;;;;;;;20.09;48.82;97949.19;13064156;22;20015;-56
2022/01/17 20:02:14;;;;;;;6.25;1.00;;;;;;;20.09;48.96;97961.88;13042839;22;20048;-52
2022/01/17 20:07:34;;;;;;;2.58;1.05;;;;;;;20.10;48.94;97972.41;13042738;22;20016;-55
2022/01/17 20:12:54;;;;;;;1.92;1.00;;;;;;;20.11;49.44;97989.44;13064341;22;20098;-54
2022/01/17 20:18:13;;;;;;;3.88;1.20;;;;;;;20.10;49.48;98002.16;13043478;22;20015;-53
2022/01/17 20:23:33;;;;;;;4.53;1.00;;;;;;;20.11;49.56;98016.47;13063861;22;20019;-52
2022/01/17 20:28:53;;;;;;;2.08;1.20;;;;;;;20.10;49.38;98025.72;13043003;22;20018;-57
2022/01/17 20:34:12;;;;;;;5.32;1.27;;;;;;;20.10;49.57;98034.63;13063774;22;20011;-56
2022/01/17 20:39:32;;;;;;;1.80;1.00;;;;;;;20.09;49.64;98032.22;13064098;22;20046;-54
2022/01/17 20:44:52;;;;;;;2.22;1.02;;;;;;;20.08;49.93;98044.94;13043727;22;20339;-54
2022/01/17 20:50:12;;;;;;;11.98;3.33;;;;;;;20.09;50.10;98043.84;13041144;22;20316;-54
2022/01/17 20:55:32;;;;;;;9.43;2.70;;;;;;;20.09;50.08;98057.38;13044609;22;20019;-54
2022/01/17 21:00:52;;;;;;;8.77;2.55;;;;;;;20.08;49.92;98058.47;13066065;22;20081;-54
2022/01/17 21:06:11;;;;;;;6.68;1.90;;;;;;;20.06;49.85;98068.78;13045055;22;20599;-54
2022/01/17 21:11:32;;;;;;;6.95;2.00;;;;;;;20.04;49.49;98078.31;13045121;22;20015;-54
2022/01/17 21:16:51;;;;;;;4.82;1.65;;;;;;;20.02;49.37;98092.13;13044548;22;20456;-54
2022/01/17 21:22:13;;;;;;;3.25;1.70;;;;;;;20.00;49.27;98105.13;13045243;22;20334;-55
2022/01/17 21:27:33;;;;;;;6.03;1.80;;;;;;;19.98;49.03;98101.94;13065761;22;20072;-54
2022/01/17 21:32:53;;;;;;;2.80;1.40;;;;;;;19.97;48.96;98089.50;13043543;22;20015;-53
2022/01/17 21:38:12;;;;;;;4.40;1.65;;;;;;;19.95;48.87;98092.50;13065282;22;20011;-53
2022/01/17 21:43:31;;;;;;;5.07;1.58;;;;;;;19.94;48.79;98103.63;13043985;22;20016;-55
2022/01/17 21:48:51;;;;;;;4.60;1.60;;;;;;;19.93;48.63;98113.63;13065679;22;20015;-54
2022/01/17 21:54:11;;;;;;;3.85;1.52;;;;;;;19.92;48.73;98119.34;13044523;22;20019;-54
2022/01/17 21:59:30;;;;;;;1.85;1.33;;;;;;;19.91;48.36;98118.50;13042617;22;20021;-55
2022/01/17 22:04:52;;;;;;;4.13;1.80;;;;;;;19.90;48.41;98106.09;13042721;22;20391;-54
2022/01/17 22:10:11;;;;;;;4.53;1.58;;;;;;;19.88;48.51;98119.13;13064795;22;20467;-54
2022/01/17 22:15:31;;;;;;;3.10;1.67;;;;;;;19.86;48.57;98124.03;13043902;22;20015;-55
2022/01/17 22:20:53;;;;;;;2.75;1.45;;;;;;;19.85;48.28;98130.50;13064044;22;20113;-54
2022/01/17 22:26:13;;;;;;;4.03;1.30;;;;;;;19.84;48.29;98137.03;13064875;22;20053;-54
2022/01/17 22:31:33;;;;;;;2.83;1.27;;;;;;;19.83;48.23;98148.13;13064794;22;20090;-53
2022/01/17 22:36:52;;;;;;;2.33;1.23;;;;;;;19.82;48.24;98154.66;13044272;22;20026;-54
2022/01/17 22:42:12;;;;;;;2.58;1.27;;;;;;;19.81;48.19;98169.25;13022276;22;20370;-55
2022/01/17 22:47:31;;;;;;;2.05;1.10;;;;;;;19.78;48.13;98167.94;13046242;22;20064;-54
2022/01/17 22:52:51;;;;;;;2.30;1.05;;;;;;;19.76;48.08;98170.16;13065844;22;20023;-54
2022/01/17 22:58:12;;;;;;;2.80;1.30;;;;;;;19.73;48.05;98154.50;13044713;22;20019;-54
2022/01/17 23:03:32;;;;;;;1.92;1.00;;;;;;;19.72;47.89;98167.22;13045297;22;20312;-55
2022/01/17 23:08:52;;;;;;;2.70;1.17;;;;;;;19.71;47.88;98173.69;13045886;22;20012;-54
2022/01/17 23:14:13;;;;;;;2.13;1.40;;;;;;;19.69;47.94;98181.28;13044829;22;20016;-54
2022/01/17 23:19:36;;;;;;;1.40;1.10;;;;;;;19.67;47.73;98178.06;13045027;22;20021;-54
2022/01/17 23:24:56;;;;;;;2.28;1.30;;;;;;;19.65;47.71;98172.13;13044821;22;20038;-54
2022/01/17 23:35:56;;;;;;;2.25;1.10;;;;;;;19.64;47.57;98175.13;13018578;22;20111;-54
2022/01/17 23:41:16;;;;;;;1.67;1.00;;;;;;;19.62;47.53;98180.03;13044623;22;20447;-55
2022/01/17 23:46:37;;;;;;;1.67;1.02;;;;;;;19.61;47.60;98183.84;13044769;22;20347;-53
2022/01/17 23:51:57;;;;;;;1.45;1.20;;;;;;;19.60;47.51;98184.91;13043653;22;20011;-54
2022/01/17 23:57:36;;;;;;;2.25;1.00;;;;;;;19.58;47.57;98184.41;13044516;22;20645;-55
